CheckWX is a tool to help pilots better visualize weather data.  It is not intended as a substitute for an official pre-flight weather briefing.

04:08:26 UTC

KBLI METAR
Bellingham International Airport
Bellingham, Washington, USA
Current

1 hour ago

KBLI 170253Z 00000KT 10SM -RA FEW030 SCT040 BKN060 06/M01 A3017 RMK AO2 RAB51 SLP225 P0000 60000 T00611006 51007
Observed
Feb-17 @ 02:53 UTC
Visibility
10 SM
Flight Rules
VFR
Conditions
Light Rain
Cloud Levels
  • Few at 3,000' AGL
  • Scattered at 4,000' AGL
  • Broken at 6,000' AGL
Temperature
C / 43°F
Dewpoint
-1°C / 30°F
Humidity
61%
Altimeter
30.17" Hg
Pressure
1021.72 hPa
Current Rain
0.01"
Previous

2 hours ago

KBLI 170153Z VRB04KT 10SM FEW025 SCT035 BKN110 07/M01 A3017 RMK AO2 SLP224 T00671011
Observed
Feb-17 @ 01:53 UTC
Wind
  • Variable at 4 KTS
Visibility
10 SM
Flight Rules
VFR
Cloud Levels
  • Few at 2,500' AGL
  • Scattered at 3,500' AGL
  • Broken at 11,000' AGL
Temperature
C / 45°F
Dewpoint
-1°C / 30°F
Humidity
57%
Altimeter
30.17" Hg
Pressure
1021.72 hPa
Previous

3 hours ago

KBLI 170053Z VRB03KT 10SM SCT025 BKN034 BKN046 07/02 A3015 RMK AO2 SLP219 T00670017
Observed
Feb-17 @ 00:53 UTC
Wind
  • Variable at 3 KTS
Visibility
10 SM
Flight Rules
VFR
Cloud Levels
  • Scattered at 2,500' AGL
  • Broken at 3,400' AGL
  • Broken at 4,600' AGL
Temperature
C / 45°F
Dewpoint
C / 36°F
Humidity
71%
Altimeter
30.15" Hg
Pressure
1021.02 hPa